createdAt,value
2023-05-05T00:00:49.536Z,97937.13
2023-05-05T00:03:15.910Z,97940.88
2023-05-05T00:05:42.508Z,97943.56
2023-05-05T00:08:09.161Z,97942.75
2023-05-05T00:10:35.483Z,97939.53
2023-05-05T00:13:01.945Z,97932.56
2023-05-05T00:15:28.499Z,97925.06
2023-05-05T00:17:54.944Z,97924.22
2023-05-05T00:20:21.493Z,97920.41
2023-05-05T00:22:47.974Z,97921.47
2023-05-05T00:25:14.396Z,97916.06
2023-05-05T00:27:41.082Z,97920.31
2023-05-05T00:30:07.562Z,97912.25
2023-05-05T00:32:34.162Z,97907.38
2023-05-05T00:35:01.467Z,97906.31
2023-05-05T00:37:27.685Z,97896.34
2023-05-05T00:39:53.920Z,97885.31
2023-05-05T00:42:20.181Z,97886.91
2023-05-05T00:44:46.394Z,97890.88
2023-05-05T00:47:12.691Z,97879.88
2023-05-05T00:49:39.378Z,97882.25
2023-05-05T00:52:05.825Z,97876.63
2023-05-05T00:54:32.139Z,97886.22
2023-05-05T00:56:58.362Z,97881.38
2023-05-05T00:59:28.854Z,97889.66
2023-05-05T01:01:55.289Z,97888.53
2023-05-05T01:04:21.642Z,97882.88
2023-05-05T01:06:47.864Z,97884.47
2023-05-05T01:09:14.084Z,97877.50
2023-05-05T01:11:40.355Z,97878.25
2023-05-05T01:14:06.653Z,97884.13
2023-05-05T01:16:32.914Z,97879.25
2023-05-05T01:19:00.329Z,97869.88
2023-05-05T01:21:27.054Z,97871.19
2023-05-05T01:23:53.273Z,97863.69
2023-05-05T01:26:19.572Z,97860.72
2023-05-05T01:28:46.051Z,97861.22
2023-05-05T01:31:12.387Z,97863.31
2023-05-05T01:33:38.693Z,97857.69
2023-05-05T01:36:05.036Z,97856.03
2023-05-05T01:38:31.599Z,97858.19
2023-05-05T01:40:57.978Z,97867.25
2023-05-05T01:43:24.278Z,97853.31
2023-05-05T01:45:50.848Z,97861.84
2023-05-05T01:48:17.103Z,97855.16
2023-05-05T01:50:46.274Z,97862.63
2023-05-05T01:53:15.034Z,97860.19
2023-05-05T01:55:41.425Z,97853.44
2023-05-05T01:58:07.790Z,97847.53
2023-05-05T02:00:37.116Z,97850.72
2023-05-05T02:03:03.564Z,97854.69
2023-05-05T02:05:29.969Z,97854.94
2023-05-05T02:07:56.309Z,97849.03
2023-05-05T02:10:22.665Z,97847.69
2023-05-05T02:12:49.070Z,97847.94
2023-05-05T02:15:15.393Z,97835.06
2023-05-05T02:17:41.701Z,97828.38
2023-05-05T02:20:08.297Z,97828.63
2023-05-05T02:22:34.890Z,97829.91
2023-05-05T02:25:01.182Z,97836.59
2023-05-05T02:27:27.559Z,97831.47
2023-05-05T02:29:53.929Z,97833.59
2023-05-05T02:32:20.297Z,97835.72
2023-05-05T02:34:46.596Z,97835.97
2023-05-05T02:37:12.998Z,97831.91
2023-05-05T02:39:39.263Z,97830.53
2023-05-05T02:42:05.467Z,97826.50
2023-05-05T02:44:31.766Z,97825.13
2023-05-05T02:46:57.997Z,97817.63
2023-05-05T02:49:26.050Z,97819.72
2023-05-05T02:51:52.341Z,97814.91
2023-05-05T02:54:18.659Z,97811.66
2023-05-05T02:56:44.916Z,97812.72
2023-05-05T02:59:12.464Z,97806.81
2023-05-05T03:01:40.177Z,97807.34
2023-05-05T03:04:06.523Z,97803.03
2023-05-05T03:06:32.912Z,97807.81
2023-05-05T03:08:59.163Z,97809.13
2023-05-05T03:11:25.858Z,97801.38
2023-05-05T03:13:52.205Z,97803.47
2023-05-05T03:16:18.574Z,97802.91
2023-05-05T03:18:45.035Z,97801.53
2023-05-05T03:21:11.404Z,97805.00
2023-05-05T03:23:37.739Z,97794.84
2023-05-05T03:26:04.013Z,97799.63
2023-05-05T03:28:30.302Z,97807.06
2023-05-05T03:30:56.555Z,97804.63
2023-05-05T03:33:22.975Z,97790.72
2023-05-05T03:35:49.347Z,97803.25
2023-05-05T03:38:15.655Z,97798.41
2023-05-05T03:40:44.676Z,97794.16
2023-05-05T03:43:11.274Z,97802.38
2023-05-05T03:45:37.929Z,97788.47
2023-05-05T03:48:04.463Z,97789.50
2023-05-05T03:50:30.827Z,97793.22
2023-05-05T03:52:57.206Z,97788.94
2023-05-05T03:55:23.772Z,97791.84
2023-05-05T03:57:50.187Z,97795.59
2023-05-05T04:00:16.574Z,97792.91
2023-05-05T04:02:43.699Z,97792.34
2023-05-05T04:05:10.237Z,97789.94
2023-05-05T04:07:36.512Z,97790.97
2023-05-05T04:10:02.857Z,97784.84
2023-05-05T04:12:29.188Z,97779.75
2023-05-05T04:14:55.496Z,97796.81
2023-05-05T04:17:21.783Z,97799.47
2023-05-05T04:19:48.100Z,97799.72
2023-05-05T04:22:14.461Z,97788.66
2023-05-05T04:24:40.856Z,97808.78
2023-05-05T04:27:07.231Z,97807.97
2023-05-05T04:29:33.584Z,97811.44
2023-05-05T04:31:59.956Z,97809.00
2023-05-05T04:34:26.276Z,97811.66
2023-05-05T04:36:52.683Z,97815.16
2023-05-05T04:39:19.029Z,97810.88
2023-05-05T04:41:45.822Z,97809.81
2023-05-05T04:44:12.161Z,97811.44
2023-05-05T04:46:38.518Z,97820.47
2023-05-05T04:49:08.227Z,97826.75
2023-05-05T04:51:34.669Z,97835.97
2023-05-05T04:54:01.111Z,97845.38
2023-05-05T04:56:27.579Z,97851.81
2023-05-05T04:58:53.912Z,97857.69
2023-05-05T05:01:20.341Z,97861.88
2023-05-05T05:03:56.282Z,97869.13
2023-05-05T05:06:22.807Z,97880.19
2023-05-05T05:08:49.180Z,97869.91
2023-05-05T05:11:15.536Z,97879.41
2023-05-05T05:13:41.907Z,97881.13
2023-05-05T05:16:08.311Z,97878.81
2023-05-05T05:18:34.866Z,97876.50
2023-05-05T05:21:03.722Z,97875.22
2023-05-05T05:23:30.118Z,97883.34
2023-05-05T05:25:56.556Z,97891.94
2023-05-05T05:28:23.101Z,97880.19
2023-05-05T05:30:49.975Z,97885.59
2023-05-05T05:33:16.595Z,97881.84
2023-05-05T05:35:43.005Z,97874.38
2023-05-05T05:38:09.371Z,97881.41
2023-05-05T05:40:37.713Z,97879.81
2023-05-05T05:43:04.058Z,97869.34
2023-05-05T05:45:30.466Z,97884.13
2023-05-05T05:47:56.838Z,97876.31
2023-05-05T05:50:23.113Z,97889.50
2023-05-05T05:52:49.553Z,97886.28
2023-05-05T05:55:16.000Z,97892.44
2023-05-05T05:57:42.437Z,97896.44
2023-05-05T06:00:08.995Z,97893.97
2023-05-05T06:02:36.172Z,97904.41
2023-05-05T06:05:02.914Z,97898.72
2023-05-05T06:07:29.315Z,97902.38
2023-05-05T06:09:55.733Z,97898.56
2023-05-05T06:12:22.099Z,97894.41
2023-05-05T06:14:48.496Z,97887.41
2023-05-05T06:17:15.275Z,97893.19
2023-05-05T06:19:42.268Z,97895.81
2023-05-05T06:22:08.624Z,97886.63
2023-05-05T06:24:35.228Z,97892.47
2023-05-05T06:27:01.611Z,97882.94
2023-05-05T06:29:28.069Z,97868.19
2023-05-05T06:31:54.734Z,97873.50
2023-05-05T06:34:21.101Z,97875.22
2023-05-05T06:36:47.496Z,97868.25
2023-05-05T06:39:15.926Z,97875.50
2023-05-05T06:41:42.475Z,97883.81
2023-05-05T06:44:08.768Z,97896.31
2023-05-05T06:46:35.194Z,97900.06
2023-05-05T06:49:01.674Z,97904.44
2023-05-05T06:51:28.224Z,97905.88
2023-05-05T06:53:54.739Z,97911.91
2023-05-05T06:56:24.357Z,97913.59
2023-05-05T06:58:50.993Z,97917.72
2023-05-05T07:01:17.496Z,97909.31
2023-05-05T07:03:44.049Z,97883.16
2023-05-05T07:06:10.529Z,97880.03
2023-05-05T07:08:36.981Z,97889.25
2023-05-05T07:11:03.321Z,97911.88
2023-05-05T07:13:29.860Z,97921.97
2023-05-05T07:15:56.264Z,97923.22
2023-05-05T07:18:22.626Z,97916.94
2023-05-05T07:20:49.002Z,97936.72
2023-05-05T07:23:15.431Z,97957.53
2023-05-05T07:25:41.750Z,97949.53
2023-05-05T07:28:08.023Z,97957.47
2023-05-05T07:30:34.653Z,97979.09
2023-05-05T07:33:04.128Z,98003.59
2023-05-05T07:35:30.530Z,98015.47
2023-05-05T07:37:56.827Z,98028.75
2023-05-05T07:40:23.147Z,98034.97
2023-05-05T07:42:49.395Z,98047.41
2023-05-05T07:45:15.629Z,98045.59
2023-05-05T07:47:42.732Z,98025.56
2023-05-05T07:50:09.408Z,98027.66
2023-05-05T07:52:46.559Z,98027.44
2023-05-05T07:55:17.675Z,98004.59
2023-05-05T07:57:44.083Z,98078.94
2023-05-05T08:00:10.725Z,98095.38
2023-05-05T08:02:37.343Z,98066.06
2023-05-05T08:05:03.983Z,98066.78
2023-05-05T08:10:14.805Z,97889.31
2023-05-05T08:12:41.156Z,97864.84
2023-05-05T08:15:07.790Z,97933.72
2023-05-05T08:17:34.414Z,97899.13
2023-05-05T08:20:00.783Z,97829.09
2023-05-05T08:22:27.157Z,97826.50
2023-05-05T08:24:53.629Z,97839.97
2023-05-05T08:27:20.196Z,97826.91
2023-05-05T08:29:46.580Z,97850.31
2023-05-05T08:32:12.908Z,97839.47
2023-05-05T08:34:39.281Z,97842.69
2023-05-05T08:37:05.755Z,97846.78
2023-05-05T08:39:32.152Z,97855.34
2023-05-05T08:41:58.440Z,97869.34
2023-05-05T08:44:24.728Z,97887.78
2023-05-05T08:46:52.466Z,97867.75
2023-05-05T08:49:19.047Z,97859.19
2023-05-05T08:51:45.406Z,97848.09
2023-05-05T08:54:11.727Z,97855.69
2023-05-05T08:56:38.059Z,97858.63
2023-05-05T08:59:04.687Z,97853.63
2023-05-05T09:01:31.283Z,97867.22
2023-05-05T09:03:57.733Z,97860.88
2023-05-05T09:06:24.544Z,97864.22
2023-05-05T09:08:50.999Z,97861.06
2023-05-05T09:11:17.393Z,97858.19
2023-05-05T09:13:46.051Z,97866.59
2023-05-05T09:16:12.654Z,97860.50
2023-05-05T09:18:39.062Z,97858.94
2023-05-05T09:21:08.304Z,97864.09
2023-05-05T09:23:34.706Z,97868.91
2023-05-05T09:26:01.168Z,97872.06
2023-05-05T09:28:27.491Z,97875.78
2023-05-05T09:30:53.970Z,97886.00
2023-05-05T09:33:20.375Z,97893.00
2023-05-05T09:35:46.681Z,97884.94
2023-05-05T09:38:13.061Z,97895.72
2023-05-05T09:40:39.427Z,97894.09
2023-05-05T09:43:05.739Z,97889.50
2023-05-05T09:45:32.445Z,97897.31
2023-05-05T09:48:00.215Z,97897.81
2023-05-05T09:50:27.065Z,97899.41
2023-05-05T09:52:53.335Z,97903.75
2023-05-05T09:55:19.806Z,97909.13
2023-05-05T09:57:46.114Z,97910.19
2023-05-05T10:00:12.384Z,97901.34
2023-05-05T10:02:38.757Z,97905.63
2023-05-05T10:05:05.733Z,97910.72
2023-05-05T10:07:32.104Z,97907.50
2023-05-05T10:09:58.417Z,97912.66
2023-05-05T10:12:24.682Z,97923.06
2023-05-05T10:14:51.205Z,97926.53
2023-05-05T10:17:17.736Z,97915.00
2023-05-05T10:19:44.486Z,97907.75
2023-05-05T10:22:10.886Z,97911.81
2023-05-05T10:24:37.274Z,97919.63
2023-05-05T10:27:03.740Z,97913.66
2023-05-05T10:29:30.064Z,97924.84
2023-05-05T10:31:56.524Z,97921.00
2023-05-05T10:34:23.486Z,97920.44
2023-05-05T10:36:49.823Z,97919.91
2023-05-05T10:39:16.180Z,97913.72
2023-05-05T10:41:42.568Z,97908.81
2023-05-05T10:44:08.922Z,97910.38
2023-05-05T10:46:35.436Z,97906.56
2023-05-05T10:49:02.066Z,97912.72
2023-05-05T10:51:39.320Z,97905.22
2023-05-05T10:54:07.102Z,97902.75
2023-05-05T10:56:34.026Z,97902.75
2023-05-05T10:59:03.312Z,97905.19
2023-05-05T11:01:29.819Z,97898.72
2023-05-05T11:03:56.553Z,97892.50
2023-05-05T11:06:23.053Z,97888.72
2023-05-05T11:08:49.363Z,97883.31
2023-05-05T11:11:15.719Z,97883.84
2023-05-05T11:13:42.007Z,97887.34
2023-05-05T11:16:08.389Z,97888.94
2023-05-05T11:18:35.075Z,97884.34
2023-05-05T11:21:01.428Z,97876.78
2023-05-05T11:23:27.806Z,97882.94
2023-05-05T11:25:54.247Z,97881.88
2023-05-05T11:28:20.546Z,97880.25
2023-05-05T11:30:46.902Z,97872.44
2023-05-05T11:33:13.305Z,97868.97
2023-05-05T11:35:39.730Z,97868.75
2023-05-05T11:38:06.149Z,97868.22
2023-05-05T11:40:32.536Z,97870.94
2023-05-05T11:42:58.840Z,97852.84
2023-05-05T11:45:25.253Z,97858.75
2023-05-05T11:47:51.724Z,97855.25
2023-05-05T11:50:18.066Z,97849.28
2023-05-05T11:52:44.403Z,97857.38
2023-05-05T11:55:10.656Z,97855.97
2023-05-05T11:57:37.000Z,97843.00
2023-05-05T12:00:03.585Z,97844.63
2023-05-05T12:02:30.990Z,97841.63
2023-05-05T12:04:57.334Z,97842.91
2023-05-05T12:07:23.685Z,97842.66
2023-05-05T12:09:49.921Z,97838.84
2023-05-05T12:12:16.204Z,97843.66
2023-05-05T12:14:42.758Z,97844.16
2023-05-05T12:17:09.305Z,97850.91
2023-05-05T12:19:35.651Z,97846.22
2023-05-05T12:22:02.297Z,97841.09
2023-05-05T12:24:28.590Z,97835.69
2023-05-05T12:26:54.960Z,97841.69
2023-05-05T12:29:21.652Z,97838.47
2023-05-05T12:31:48.130Z,97837.69
2023-05-05T12:34:14.487Z,97841.47
2023-05-05T12:36:40.943Z,97834.47
2023-05-05T12:39:07.348Z,97837.47
2023-05-05T12:41:33.831Z,97838.03
2023-05-05T12:44:00.121Z,97832.94
2023-05-05T12:46:26.639Z,97832.94
2023-05-05T12:48:53.030Z,97841.03
2023-05-05T12:51:19.384Z,97834.81
2023-05-05T12:53:46.379Z,97834.81
2023-05-05T12:56:12.726Z,97837.53
2023-05-05T13:01:22.866Z,97840.81
2023-05-05T13:03:49.247Z,97832.72
2023-05-05T13:06:15.834Z,97823.31
2023-05-05T13:08:42.101Z,97821.72
2023-05-05T13:11:09.569Z,97822.00
2023-05-05T13:13:35.813Z,97811.50
2023-05-05T13:16:02.199Z,97801.00
2023-05-05T13:18:28.553Z,97786.72
2023-05-05T13:20:54.895Z,97778.09
2023-05-05T13:23:21.215Z,97777.03
2023-05-05T13:25:47.622Z,97769.53
2023-05-05T13:28:13.991Z,97781.13
2023-05-05T13:30:43.558Z,97799.97
2023-05-05T13:33:09.957Z,97797.03
2023-05-05T13:35:36.629Z,97804.91
2023-05-05T13:38:02.981Z,97800.09
2023-05-05T13:40:29.367Z,97796.06
2023-05-05T13:42:55.747Z,97800.16
2023-05-05T13:45:22.153Z,97805.84
2023-05-05T13:47:48.475Z,97810.72
2023-05-05T13:50:14.818Z,97813.97
2023-05-05T13:52:41.240Z,97810.81
2023-05-05T13:55:07.786Z,97821.84
2023-05-05T13:57:34.283Z,97808.66
2023-05-05T14:00:00.599Z,97793.59
2023-05-05T14:02:26.998Z,97775.81
2023-05-05T14:04:53.546Z,97758.00
2023-05-05T14:07:19.964Z,97761.81
2023-05-05T14:09:46.497Z,97771.50
2023-05-05T14:12:12.832Z,97772.59
2023-05-05T14:14:39.135Z,97779.34
2023-05-05T14:17:05.526Z,97778.06
2023-05-05T14:19:32.024Z,97758.69
2023-05-05T14:21:58.326Z,97772.94
2023-05-05T14:24:24.638Z,97768.06
2023-05-05T14:26:50.987Z,97768.06
2023-05-05T14:29:17.300Z,97763.19
2023-05-05T14:31:43.535Z,97765.88
2023-05-05T14:34:09.800Z,97758.59
2023-05-05T14:36:36.020Z,97745.63
2023-05-05T14:39:02.260Z,97745.84
2023-05-05T14:41:28.500Z,97738.56
2023-05-05T14:43:54.722Z,97727.47
2023-05-05T14:46:21.199Z,97727.47
2023-05-05T14:48:47.617Z,97724.00
2023-05-05T14:51:13.895Z,97728.28
2023-05-05T14:53:40.092Z,97725.88
2023-05-05T14:56:06.493Z,97735.84
2023-05-05T14:58:32.745Z,97728.06
2023-05-05T15:00:59.029Z,97730.25
2023-05-05T15:03:25.433Z,97727.84
2023-05-05T15:05:51.858Z,97725.72
2023-05-05T15:08:18.262Z,97719.00
2023-05-05T15:10:44.765Z,97719.91
2023-05-05T15:13:11.180Z,97719.38
2023-05-05T15:15:37.667Z,97723.97
2023-05-05T15:18:03.913Z,97718.88
2023-05-05T15:20:30.168Z,97721.03
2023-05-05T15:22:56.698Z,97731.34
2023-05-05T15:25:22.904Z,97724.63
2023-05-05T15:27:49.102Z,97740.28
2023-05-05T15:30:15.376Z,97747.06
2023-05-05T15:32:41.826Z,97760.84
2023-05-05T15:35:08.508Z,97768.41
2023-05-05T15:37:35.051Z,97782.41
2023-05-05T15:40:01.327Z,97789.22
2023-05-05T15:42:27.566Z,97802.16
2023-05-05T15:44:53.879Z,97804.31
2023-05-05T15:47:20.386Z,97807.56
2023-05-05T15:49:46.955Z,97812.44
2023-05-05T15:52:13.292Z,97817.31
2023-05-05T15:54:39.723Z,97816.00
2023-05-05T15:57:06.253Z,97813.56
2023-05-05T15:59:38.126Z,97817.66
2023-05-05T16:02:04.480Z,97824.41
2023-05-05T16:04:30.869Z,97831.19
2023-05-05T16:06:57.297Z,97836.34
2023-05-05T16:09:23.685Z,97838.81
2023-05-05T16:11:50.006Z,97840.16
2023-05-05T16:14:16.449Z,97842.63
2023-05-05T16:16:42.779Z,97831.59
2023-05-05T16:19:09.222Z,97838.09
2023-05-05T16:21:35.549Z,97838.66
2023-05-05T16:24:01.886Z,97835.72
2023-05-05T16:26:28.628Z,97840.59
2023-05-05T16:28:54.998Z,97839.25
2023-05-05T16:31:21.343Z,97837.41
2023-05-05T16:33:47.861Z,97829.63
2023-05-05T16:36:14.443Z,97837.47
2023-05-05T16:38:40.745Z,97833.44
2023-05-05T16:44:03.182Z,97778.84
2023-05-05T16:46:29.432Z,97774.84
2023-05-05T16:48:57.843Z,97766.19
2023-05-05T16:51:25.094Z,97756.78
2023-05-05T16:53:51.496Z,97778.91
2023-05-05T16:56:17.824Z,97784.84
2023-05-05T16:58:44.178Z,97777.06
2023-05-05T17:01:10.511Z,97776.53
2023-05-05T17:03:36.898Z,97778.19
2023-05-05T17:06:03.200Z,97780.34
2023-05-05T17:08:29.523Z,97782.50
2023-05-05T17:10:57.092Z,97783.88
2023-05-05T17:13:23.594Z,97782.03
2023-05-05T17:15:49.932Z,97786.09
2023-05-05T17:18:16.243Z,97790.94
2023-05-05T17:20:42.626Z,97787.72
2023-05-05T17:23:08.925Z,97782.09
2023-05-05T17:25:35.283Z,97788.06
2023-05-05T17:28:01.851Z,97795.31
2023-05-05T17:30:28.300Z,97784.31
2023-05-05T17:32:55.160Z,97772.53
2023-05-05T17:35:21.614Z,97784.88
2023-05-05T17:37:47.974Z,97778.16
2023-05-05T17:40:14.418Z,97782.22
2023-05-05T17:42:40.792Z,97779.00
2023-05-05T17:45:07.494Z,97781.16
2023-05-05T17:47:34.365Z,97791.38
2023-05-05T17:50:00.726Z,97792.75
2023-05-05T17:52:27.036Z,97792.75
2023-05-05T17:54:53.322Z,97788.72
2023-05-05T17:57:19.617Z,97779.84
2023-05-05T17:59:45.894Z,97777.44
2023-05-05T18:02:12.297Z,97794.97
2023-05-05T18:04:38.803Z,97806.00
2023-05-05T18:07:05.072Z,97808.94
2023-05-05T18:09:31.323Z,97811.88
2023-05-05T18:11:57.602Z,97811.38
2023-05-05T18:14:24.067Z,97807.34
2023-05-05T18:16:50.734Z,97802.25
2023-05-05T18:19:17.165Z,97804.94
2023-05-05T18:21:43.546Z,97805.50
2023-05-05T18:24:19.300Z,97804.97
2023-05-05T18:26:46.671Z,97800.94
2023-05-05T18:29:13.089Z,97801.22
2023-05-05T18:31:39.407Z,97810.63
2023-05-05T18:34:05.725Z,97809.31
2023-05-05T18:36:32.110Z,97808.75
2023-05-05T18:38:58.395Z,97806.63
2023-05-05T18:41:24.698Z,97808.50
2023-05-05T18:43:51.045Z,97811.47
2023-05-05T18:46:19.481Z,97805.28
2023-05-05T18:48:45.776Z,97803.69
2023-05-05T18:51:12.121Z,97809.34
2023-05-05T18:53:38.607Z,97808.53
2023-05-05T18:56:04.929Z,97807.19
2023-05-05T18:58:31.270Z,97809.09
2023-05-05T19:00:57.680Z,97804.00
2023-05-05T19:03:24.229Z,97804.25
2023-05-05T19:05:50.755Z,97801.84
2023-05-05T19:08:17.048Z,97807.22
2023-05-05T19:10:43.343Z,97813.69
2023-05-05T19:13:09.684Z,97813.16
2023-05-05T19:18:27.479Z,97822.53
2023-05-05T19:20:53.796Z,97826.31
2023-05-05T19:23:20.119Z,97838.41
2023-05-05T19:25:46.398Z,97837.63
2023-05-05T19:28:12.809Z,97841.66
2023-05-05T19:30:39.408Z,97844.34
2023-05-05T19:33:05.889Z,97851.06
2023-05-05T19:35:32.632Z,97849.44
2023-05-05T19:37:59.068Z,97849.72
2023-05-05T19:40:25.705Z,97856.97
2023-05-05T19:42:52.472Z,97865.84
2023-05-05T19:45:18.872Z,97865.84
2023-05-05T19:47:45.235Z,97867.72
2023-05-05T19:50:12.013Z,97872.31
2023-05-05T19:52:38.690Z,97869.91
2023-05-05T19:55:04.987Z,97874.47
2023-05-05T19:57:44.234Z,97878.19
2023-05-05T20:00:11.016Z,97885.75
2023-05-05T20:02:37.831Z,97890.03
2023-05-05T20:05:04.314Z,97887.91
2023-05-05T20:07:31.129Z,97890.59
2023-05-05T20:09:58.528Z,97888.97
2023-05-05T20:12:25.374Z,97898.09
2023-05-05T20:14:51.816Z,97895.69
2023-05-05T20:17:18.223Z,97900.25
2023-05-05T20:19:45.791Z,97904.03
2023-05-05T20:22:12.290Z,97902.13
2023-05-05T20:24:38.575Z,97902.41
2023-05-05T20:27:05.045Z,97896.22
2023-05-05T20:29:31.432Z,97901.06
2023-05-05T20:31:58.110Z,97890.34
2023-05-05T20:34:25.969Z,97893.22
2023-05-05T20:36:52.367Z,97888.94
2023-05-05T20:39:18.717Z,97892.72
2023-05-05T20:41:45.253Z,97900.25
2023-05-05T20:44:11.761Z,97892.19
2023-05-05T20:46:38.139Z,97897.56
2023-05-05T20:49:04.498Z,97883.59
2023-05-05T20:51:30.858Z,97877.41
2023-05-05T20:53:57.267Z,97873.91
2023-05-05T20:56:23.671Z,97879.53
2023-05-05T20:58:50.032Z,97870.94
2023-05-05T21:01:16.523Z,97870.16
2023-05-05T21:03:43.042Z,97872.31
2023-05-05T21:06:09.411Z,97870.72
2023-05-05T21:08:35.752Z,97872.59
2023-05-05T21:11:02.314Z,97865.59
2023-05-05T21:13:28.652Z,97861.31
2023-05-05T21:15:55.001Z,97864.25
2023-05-05T21:18:21.393Z,97864.53
2023-05-05T21:20:47.774Z,97860.22
2023-05-05T21:23:15.320Z,97859.97
2023-05-05T21:25:41.677Z,97847.38
2023-05-05T21:28:08.114Z,97847.09
2023-05-05T21:30:34.483Z,97848.69
2023-05-05T21:33:00.935Z,97856.47
2023-05-05T21:35:27.445Z,97858.09
2023-05-05T21:37:53.771Z,97867.50
2023-05-05T21:40:20.098Z,97861.59
2023-05-05T21:42:46.975Z,97866.69
2023-05-05T21:45:13.441Z,97873.41
2023-05-05T21:47:40.230Z,97864.00
2023-05-05T21:50:06.992Z,97869.63
2023-05-05T21:52:33.620Z,97868.28
2023-05-05T21:55:00.164Z,97866.69
2023-05-05T21:57:26.501Z,97865.31
2023-05-05T21:59:52.880Z,97858.91
2023-05-05T22:02:19.451Z,97854.59
2023-05-05T22:04:45.940Z,97847.09
2023-05-05T22:07:12.415Z,97847.59
2023-05-05T22:09:38.864Z,97847.88
2023-05-05T22:12:05.437Z,97850.28
2023-05-05T22:14:31.837Z,97854.00
2023-05-05T22:16:58.103Z,97855.38
2023-05-05T22:19:24.440Z,97856.69
2023-05-05T22:21:50.934Z,97853.47
2023-05-05T22:24:17.362Z,97853.72
2023-05-05T22:26:43.757Z,97859.63
2023-05-05T22:29:10.351Z,97860.69
2023-05-05T22:31:36.854Z,97862.03
2023-05-05T22:34:03.176Z,97857.19
2023-05-05T22:36:29.456Z,97860.94
2023-05-05T22:38:55.779Z,97870.31
2023-05-05T22:41:22.082Z,97862.53
2023-05-05T22:43:48.558Z,97862.81
2023-05-05T22:46:14.945Z,97860.13
2023-05-05T22:48:41.449Z,97859.34
2023-05-05T22:51:07.961Z,97841.88
2023-05-05T22:53:34.311Z,97844.03
2023-05-05T22:56:00.681Z,97849.66
2023-05-05T22:58:28.409Z,97847.50
2023-05-05T23:00:55.077Z,97853.94
2023-05-05T23:03:21.587Z,97856.88
2023-05-05T23:05:47.966Z,97856.31
2023-05-05T23:08:14.288Z,97856.59
2023-05-05T23:10:40.647Z,97852.59
2023-05-05T23:13:07.023Z,97842.91
2023-05-05T23:15:33.527Z,97846.13
2023-05-05T23:20:48.253Z,97841.81
2023-05-05T23:23:14.706Z,97852.00
2023-05-05T23:25:41.040Z,97857.59
2023-05-05T23:28:07.420Z,97853.84
2023-05-05T23:30:33.803Z,97854.34
2023-05-05T23:33:00.321Z,97857.31
2023-05-05T23:35:26.557Z,97854.88
2023-05-05T23:37:52.887Z,97857.03
2023-05-05T23:40:19.162Z,97854.59
2023-05-05T23:42:45.463Z,97860.22
2023-05-05T23:45:11.944Z,97864.00
2023-05-05T23:47:38.416Z,97863.41
2023-05-05T23:50:05.133Z,97864.72
2023-05-05T23:52:31.457Z,97866.06
2023-05-05T23:54:57.814Z,97862.56
2023-05-05T23:57:24.165Z,97868.97
2023-05-05T23:59:50.627Z,97859.34
